Terminal Aerodrome Forecast
Issued by NWS

Home | Current Version | Previous Version | Text Only | Print | Product List | Glossary On
Versions: 1 2 3 4 5 6 7 8 9 10 11 12 13
000
FTUS44 KBMX 170241 AAA
TAFTOI
TAF AMD
KTOI 170241Z 1703/1724 34012KT P6SM OVC010
     FM170400 34012KT 5SM -SN OVC012
      TEMPO 1705/1708 2SM -SN
     FM171100 34012KT P6SM OVC050
     FM171400 32012KT P6SM SKC=

USA.gov is the U.S. government's official web portal to all federal, state and local government web resources and services.